A- A+ FrançaisEnglishEspañol中国

最近的 LFOP Rouen-Boos LFOZ Orleans-St-Denis-De-L'hotel LFBC Cazaux LFBT Tarbes-Lourdes-Pyrénées

manche à air

飞行员的航空天气,使用METAR(气象机场报告)进行的飞行准备和TAF(终端机场预报:针对以下情况的短期天气预报)航空)。 以及其他资源,例如VAC(目视进近图)和NOTAM(通知飞行员)以进行预试飞行.

Lands End机场 (联合王国) / OACI EGHC/ IATA LEQ

Lands End机场的高度为121 m=397 ft. 它位于附近 Land's End (联合王国). 可提供5天天气预报 Penzance 位于 8.9 km.

METAR Lands End机场的 - EGHC

EGHC 201150Z VRB01KT CAVOK 09/02 Q1048

Lands End机场METAR解码 (GB)

EGHC机场发行的METAR日期lundi 20 janvier 2020至11:50 GMT. 警告:此METAR已过期,已于55分钟前发布.

可见度为大于 10 km=大于6.2 sm.

温度为9°C=48 °F 露点为2°C=36 °F 。 这相当于62%的相对湿度。.

QNH是1048 hPa=30.95 inHg

的风1 kt=2 km/h, 风向为°.

天空晴朗

TAF Lands End机场的 - EGHC

EGHC 201107Z 2012/2018 VRB03KT CAVOK

EGHC 201107Z 2012/2018 VRB03KT 天花板和能见度好,能见度超过10 km,5000英尺以下或最低扇区高度以下没有云。 没有积雨云或发芽的积云,无论它们的高度如何,也没有明显的天气

附近的机场Lands End

Penzance的一般天气5天预报 (8.9 km)EGDR Culdrose机场 (30 km)EGDO Predannack (Closed)机场 (33 km)EGHY Truro机场 (42 km)EGTP Perranporth机场 (43 km)EGHE Scilly Isles机场 (49 km)EGLA Bodmin机场 (84 km)

的鸟瞰图

Lands End机场的NOTAM

提供的NOTAM不能保证其时事性。 在将其用于飞行准备或在飞行期间使用之前,飞行员是唯一负责验证其有效性的人员。

NOTAM Runway (从 jeudi 2 janvier 2020 时间上午 11:01 到 samedi 29 février 2020 时间上午 12:15)

L0029/20 NOTAMN
Q) EGTT/QMRLC/IV/NBO/A /000/999/5006N00540W005
A) EGHC B) 2001021101 C) 2002291215
E) GRASS RWY 02/20 AND RWY 11/29 NOT AVAILABLE
CREATED: 02 Jan 2020 11:01:00
SOURCE: EUECYIYN

NOTAM Air/ground facility (从 lundi 2 décembre 2019 时间上午 10:23)

L9240/19 NOTAMN
Q) EGTT/QCACF/IV/B /A /000/999/5006N00540W005
A) EGHC B) 1912021023 C) PERM
E) AIR TRAFFIC SERVICES COMMUNICATION FACILITIES
TWR - CHANNEL, AMEND TO READ
120.255 MHZ, DOC 30 NM/8,000 FT
UK AIP AD 2.18 REFERS
CREATED: 02 Dec 2019 10:26:00
SOURCE: EUECYIYN

NOTAM Taxiway edge lights (从 lundi 28 octobre 2019 时间上午 00:00)

L7699/19 NOTAMN
Q) EGTT/QLYCS/IV/M /A /000/999/5006N00540W005
A) EGHC B) 1910280000 C) PERM
E) OTHER LIGHTING, SECONDARY POWER SUPPLY: AMEND TO READ
LINE 3, COLUMN 3 TO READ: EDGE: BLUE EDGE LIGHTS ON TAXIWAY ALPHA.
BLUE EDGE LINLANERS ON TAXIWAY BRAVO.
AIP AD 2 EGHC-2.15 REFERS
CREATED: 17 Oct 2019 08:35:00
SOURCE: EUECYIYN

NOTAM Aerodrome (从 lundi 14 octobre 2019 时间上午 09:30)

L7606/19 NOTAMR L5966/19
Q) EGTT/QFAAH/IV/NBO/A /000/999/5006N00540W005
A) EGHC B) 1910140930 C) PERM
E) AD OPERATIONAL HOURS AND AIR TRAFFIC SERVICES COMMUNICATION
FACILITIES AMEND
MON-FRI 0815-1730 (0710-1730), SAT 0815-1215 (0710-1730), SUNDAY
CLOSED.
UK AIP AD 2.3 PARAGRAPH 1, AD 2.18 COLUMN 6 REFER
CREATED: 14 Oct 2019 09:31:00
SOURCE: EUECYIYN

数据源